map of PMI home
PMI - Airport
Location
City:  Palma de Mallorca, Mallorca, Balearic Islands, Spain
Name:Son Sant Joan Airport
ICAO:LEPA
IATA:PMI

Details
Type:Airport (Aerodrome, Airfield)
Use:Public/Civil, Military
Latitude:3933'06"N (39.551675)
Longitude:244'20"E (2.738808)
Datum:WGS 1984
Elevation:27 ft (8 m)
Variation:0.99E (WMM2015 magnetic declination)
0.11 annual change
Runways:2
Longest:10728 × 148 ft (3270 × 45 m), paved

Weather
METAR:LEPA 130900Z 00000KT 9999 FEW026 07/06 Q1026 NOSIG
TAF:LEPA 130500Z 1306/1406 VRB03KT 9999 FEW025 TX15/1312Z TN03/1306Z
BECMG 1310/1312 25012KT PROB30
TEMPO 1314/1406 25015G25KT

Related Locations
Nearby:
Farthest:GIS: 12179 mi / 19600 km
Gisborne, GIS, NZ

Find:

   beyond  
but within

Other Information
Maps:
NOTAMs:
Links:
Sources:

  
flag of Spain
flag of Balearic Islands
flag of Mallorca
  

Airport Diagram

Airport diagram for PMI

Larger airport diagram (OBSOLETE) from NGA

Sectional Chart

Flight Planning
at skyvector.com

Satellite Image

Google Maps Satellite view

 

Copyright © 2004-2017 Karl L. Swartz. All rights reserved.
The Great Circle Mapper name and logo are trademarks of the Great Circle Mapper.
All other trademarks mentioned herein belong to their respective owners.
Please see credits for attibutions and further copyright information.

  Follow gcmap on Facebook Follow gcmap on Twitter Follow gcmap on Google+ GCmap on LinkedIn

hCard Microformat

Geo Microformat